Skip Navigation LinksHome page > Weather > Current weather Skip Navigation Links

Current Weather

Sarh, Chad

For information only: do not use for flight planning or navigation.
Latest weather
Observation time Wednesday, March 4, 2015 7:00 PM WAT
Local time Wednesday, March 4, 2015 9:13 PM WAT
Flight conditions Marginal Visual Meteorological Conditions
Winds
Wind speed calm
Visibility 3.7 mi.
Sky condition
Ceiling unlimited
Temperature 95°F
Dewpoint 52°F
Altimeter 29.80 in.Hg
Derived measurements
Relative humidity 23%
Heat index 95°F
Density altitude 2962 ft.
METAR FTTA 041800Z 00000KT 6000 NSC 35/11 Q1009

Settings

Location code

InnerDrive.Weather 4.0.5505.0 Release CLR 4.0.30319.34014
Copyright ©2015 Inner Drive Technology. All rights reserved. Portions Copyright ©1986-2015 David Braverman.

Find weather

Site navigation


Skip Navigation Links

Place info

Page info

PayPal - The safer, easier way to pay online!

Return home.

Copyright ©2015 Inner Drive Technology. Purveyors of fine, hand-crafted computer software. Page printed 2015-03-04T20:13:21 UTC.